Racecast

Ceasar Rodriguez

Texas-Tyler (TX) · SR-4 · NCAA DIISOUTH CENTRALLONE STAR · Compare head to head

Athlete rating 102.9 2014 TF season
Best race 104.8 TF
Races 51
Seasons 5 2010 — 2014

RankedNation #5799·NCAA DIII #2179·ASC #3·TX #79·Team #6 ?

Rating scale ?
Speed rating — all races

Cross Country

XC speed rating

2013 XC 97.3

UT Tyler (TX) · Grade Sr

Date Meet Event Result Place Rating Difficulty PR/SR Flags
2013-11-02 Sherrod Residential Park 8000m 28:46 12th · 7th on team 99.5 +0.010 ★CR SR CSR RSR
2013-10-19 University Of Dallas Campus 6000m 21:04 9th · 2nd on team 97.4 -0.011 ★PR ★CR SR CSR
2013-10-05 Centenary College of Louisiana 8000m 29:44.1 17th · 4th on team 95.5 +0.004 ★CR CSR
2013-09-28 Shelby Farms Park 8000m 29:15 83rd · 6th on team 97.7 +0.013 ★CR SR CSR RSR
2013-09-04 UT Tyler 5000m 17:39.6 24th · 8th on team 96.5 -0.014 ★PR ★CR SR CSR RSR

2012 XC 97.2

Texas-Tyler (TX) · Grade JR-3

Date Meet Event Result Place Rating Difficulty PR/SR Flags
2012-10-27 American Southwest Conference Championships 8000m 28:40.4 24th · 10th on team 99.9 ★PR ★CR SR CSR RSR
2012-10-13 Choctaw Open 8000m 29:26.5 67th · 4th on team 97.3 ★CR CSR
2012-10-06 Centenary Invitational 8000m 28:52.7 17th · 10th on team 99.2 PR ★CR SR CSR RSR
2012-09-29 Grass Routes Run Festival 7500m 29:09.8 41st · 6th on team 92.1 ★PR ★CR SR CSR RSR

2011 XC

UT Tyler (TX) · Grade So

Date Meet Event Result Place Rating Difficulty PR/SR Flags
2011-09-10 UT Tyler 8000m 30:42 31st · 12th on team +0.021 ★CR SR CSR

2010 XC 97.5

UT Tyler (TX) · Grade Fr

Date Meet Event Result Place Rating Difficulty PR/SR Flags
2010-10-16 University of AR XC course 10000m 36:09.5 380th · 8th on team 99.0 +0.033 ★PR ★CR R SR CSR RSR
2010-10-02 Shelby Farms Park 8000m 29:51 66th · 11th on team 96.5 +0.013 CR CSR
2010-09-25 Texas Lutheran University 8000m 29:44 21st · 7th on team 97.0 +0.016 PR ★CR R SR CSR RSR

Track & Field

TF speed rating

2014 TF 101.4

Texas-Tyler (TX) · Grade SR-4

Date Meet Event Result Place Rating Difficulty PR/SR Flags
2014-04-25 Meet results → Men's 800 Meters 2:12.23 6th · 3rd on team 96.9
2014-04-25 Meet results → Men's 1500 Meters 4:28.23 6th · 4th on team 99.4
2014-04-19 Meet results → Men's 800 Meters 2:05.87 13th · 3rd on team 101.8
2014-04-19 Meet results → Men's 1500 Meters 4:18.04 13th · 3rd on team 103.3 SR
2014-04-12 New Summerfield College Invitational 800m 2:07.73 3rd · 1st on team 102.2 -0.017 SR
2014-04-12 New Summerfield College Invitational 1500m 4:27.65 7th · 4th on team 101.5 -0.017 SR
2014-04-04 Meet results → Men's 1500 Meters 4:19.33 32nd · 4th on team 102.8 SR RSR
2014-04-04 Meet results → Men's 800 Meters 2:02.21 27th · 4th on team 104.8 ★R SR RSR
2014-03-28 Meet results → Men's 1500 Meters 4:21.79 11th · 2nd on team 101.8 SR RSR
2014-03-28 Meet results → Men's 800 Meters 2:08.51 26th · 3rd on team 99.7 SR

2013 TF 103.0

Texas-Tyler (TX) · Grade JR-3

Date Meet Event Result Place Rating Difficulty PR/SR Flags
2013-04-26 Meet results → Men's 1500 Meters 4:14.37 4th · 2nd on team 104.4 ★PR SR
2013-04-26 Meet results → Men's 800 Meters 2:02.31 3rd · 2nd on team 104.4
2013-04-12 Meet results → Men's 1500 Meters 4:19.82 5th · 2nd on team 102.2
2013-04-06 Meet results → Men's 800 Meters 2:03.54 24th · 2nd on team 103.3
2013-03-29 Meet results → Men's 800 Meters 2:03.98 20th · 3rd on team 103.0
2013-03-29 Meet results → Men's 1500 Meters 4:14.93 14th · 4th on team 104.1 PR SR
2013-03-22 Meet results → Men's 800 Meters 2:02.2 31st · 2nd on team 104.5 ★PR R SR RSR
2013-03-08 Meet results → Men's 800 Meters 2:06.71 5th · 2nd on team 100.7 SR
2013-03-02 Meet results → Men's 1500 Meters 4:23.1 8th · 1st on team 100.9 SR RSR

2012 TF 98.7

Texas-Tyler (TX) · Grade SO-2

Date Meet Event Result Place Rating Difficulty PR/SR Flags
2012-05-10 Meet results → Men's 800 Meters 2:07.41 6th · 2nd on team 100.0
2012-04-27 Meet results → Men's 800 Meters 2:05.06 8th · 3rd on team 101.8
2012-04-27 Meet results → Men's 1500 Meters 4:21.89 9th · 5th on team 101.0 SR
2012-04-13 Meet results → Men's 400 Meters 55.96 17th · 4th on team ★PR SR
2012-04-13 Meet results → Men's 1500 Meters 4:29.15 7th · 2nd on team 98.2 SR
2012-04-06 Meet results → Men's 3000 Meters 10:33.89 10th · 4th on team 90.5 ★PR SR
2012-04-06 Meet results → Men's 800 Meters 2:03.79 22nd · 2nd on team 102.9 PR SR RSR
2012-03-24 Meet results → Men's 1500 Meters 4:33.51 34th · 5th on team 96.7 SR RSR

2011 TF 100.1

Texas-Tyler (TX) · Grade FR-1

Date Meet Event Result Place Rating Difficulty PR/SR Flags
2011-04-29 Meet results → Men's 1500 Meters 4:23.09 8th · 6th on team 100.4
2011-04-29 Meet results → Men's 800 Meters 2:07.81 10th · 5th on team 99.7
2011-04-16 Lon Morris Relays 1500m 4:22.21 6th · 1st on team 101.5 -0.028
2011-04-16 Lon Morris Relays 800m 2:06.2 4th · 1st on team 101.6 -0.028 ★PR SR
2011-04-08 Meet results → Men's 5000 Meters 18:30.71 10th · 1st on team 90.9 ★PR SR
2011-04-08 Meet results → Men's 800 Meters 2:05.93 13th · 1st on team 101.2 PR SR
2011-03-26 Meet results → Men's 800 Meters 2:07.41 8th · 5th on team 100.0 PR SR
2011-03-26 Meet results → Men's 1500 Meters 4:21.88 9th · 5th on team 100.8 PR SR
2011-03-12 LMC Invitational 800m 2:07.24 10th · 3rd on team 101.1 -0.028 PR R SR RSR
2011-03-12 LMC Invitational 1500m 4:18.4 8th · 3rd on team 103.1 -0.028 ★PR R SR RSR
2011-02-11 UT Tyler/Lon Morris/Texas Wesleyan Tri-Meet 1500m 4:24 8th · 2nd on team 100.9 -0.026 PR R SR RSR